Terminal Aerodrome Forecast
Issued by NWS Mt. Holly, NJ

Home | Current Version | Previous Version | Text Only | Print | Product List | Glossary On
Versions: 1 2 3 4 5 6 7 8 9 10 11 12 13 14 15 16
518
FTUS41 KPHI 261120
TAFRDG
TAF
KRDG 261120Z 2612/2712 08010KT P6SM OVC015
     FM261800 09010KT 6SM BR OVC010
     FM262200 08010KT 3SM -DZ BR OVC006
     FM270000 09005KT 4SM -SHRA BR OVC004=

USA.gov is the U.S. government's official web portal to all federal, state and local government web resources and services.